sensor_id;sensor_type;location;lat;lon;timestamp;P1;durP1;ratioP1;P2;durP2;ratioP2
31308;SDS011;17936;52.446;10.840;2023-04-03T00:01:28;6.85;;;1.20;;
31308;SDS011;17936;52.446;10.840;2023-04-03T00:03:54;1.67;;;0.93;;
31308;SDS011;17936;52.446;10.840;2023-04-03T00:06:20;6.57;;;1.30;;
31308;SDS011;17936;52.446;10.840;2023-04-03T00:08:46;10.32;;;1.35;;
31308;SDS011;17936;52.446;10.840;2023-04-03T00:11:12;10.32;;;1.67;;
31308;SDS011;17936;52.446;10.840;2023-04-03T00:13:38;4.97;;;1.20;;
31308;SDS011;17936;52.446;10.840;2023-04-03T00:16:05;6.57;;;1.10;;
31308;SDS011;17936;52.446;10.840;2023-04-03T00:18:31;3.92;;;1.25;;
31308;SDS011;17936;52.446;10.840;2023-04-03T00:20:56;4.55;;;1.27;;
31308;SDS011;17936;52.446;10.840;2023-04-03T00:23:22;4.65;;;1.25;;
31308;SDS011;17936;52.446;10.840;2023-04-03T00:25:48;6.10;;;1.25;;
31308;SDS011;17936;52.446;10.840;2023-04-03T00:28:15;3.72;;;1.20;;
31308;SDS011;17936;52.446;10.840;2023-04-03T00:30:40;6.00;;;1.98;;
31308;SDS011;17936;52.446;10.840;2023-04-03T00:33:06;8.00;;;1.90;;
31308;SDS011;17936;52.446;10.840;2023-04-03T00:35:31;6.80;;;2.40;;
31308;SDS011;17936;52.446;10.840;2023-04-03T00:37:59;14.13;;;2.65;;
31308;SDS011;17936;52.446;10.840;2023-04-03T00:40:25;7.38;;;2.33;;
31308;SDS011;17936;52.446;10.840;2023-04-03T00:42:55;5.60;;;2.00;;
31308;SDS011;17936;52.446;10.840;2023-04-03T00:45:24;7.25;;;2.08;;
31308;SDS011;17936;52.446;10.840;2023-04-03T00:47:52;8.52;;;2.42;;
31308;SDS011;17936;52.446;10.840;2023-04-03T00:50:19;11.07;;;1.77;;
31308;SDS011;17936;52.446;10.840;2023-04-03T00:52:44;5.07;;;1.88;;
31308;SDS011;17936;52.446;10.840;2023-04-03T00:55:12;6.40;;;2.13;;
31308;SDS011;17936;52.446;10.840;2023-04-03T00:57:39;5.57;;;1.27;;
31308;SDS011;17936;52.446;10.840;2023-04-03T01:00:08;6.50;;;1.40;;
31308;SDS011;17936;52.446;10.840;2023-04-03T01:02:36;3.70;;;1.20;;
31308;SDS011;17936;52.446;10.840;2023-04-03T01:05:02;8.02;;;1.50;;
31308;SDS011;17936;52.446;10.840;2023-04-03T01:07:29;5.82;;;1.08;;
31308;SDS011;17936;52.446;10.840;2023-04-03T01:09:57;5.30;;;1.17;;
31308;SDS011;17936;52.446;10.840;2023-04-03T01:12:26;4.65;;;1.10;;
31308;SDS011;17936;52.446;10.840;2023-04-03T01:14:54;10.15;;;1.58;;
31308;SDS011;17936;52.446;10.840;2023-04-03T01:17:26;7.55;;;1.35;;
31308;SDS011;17936;52.446;10.840;2023-04-03T01:19:57;7.03;;;0.95;;
31308;SDS011;17936;52.446;10.840;2023-04-03T01:25:30;8.00;;;1.10;;
31308;SDS011;17936;52.446;10.840;2023-04-03T01:27:56;7.88;;;1.20;;
31308;SDS011;17936;52.446;10.840;2023-04-03T01:30:24;4.57;;;0.80;;
31308;SDS011;17936;52.446;10.840;2023-04-03T01:32:55;4.60;;;1.20;;
31308;SDS011;17936;52.446;10.840;2023-04-03T01:35:20;6.95;;;1.55;;
31308;SDS011;17936;52.446;10.840;2023-04-03T01:37:46;6.05;;;1.20;;
31308;SDS011;17936;52.446;10.840;2023-04-03T01:40:11;5.57;;;1.40;;
31308;SDS011;17936;52.446;10.840;2023-04-03T01:42:37;4.40;;;1.05;;
31308;SDS011;17936;52.446;10.840;2023-04-03T01:45:03;6.78;;;1.30;;
31308;SDS011;17936;52.446;10.840;2023-04-03T01:47:28;2.67;;;1.15;;
31308;SDS011;17936;52.446;10.840;2023-04-03T01:49:54;9.10;;;1.20;;
31308;SDS011;17936;52.446;10.840;2023-04-03T01:52:20;8.15;;;1.27;;
31308;SDS011;17936;52.446;10.840;2023-04-03T01:54:45;6.45;;;1.70;;
31308;SDS011;17936;52.446;10.840;2023-04-03T01:57:11;4.63;;;0.93;;
31308;SDS011;17936;52.446;10.840;2023-04-03T01:59:38;3.38;;;0.90;;
31308;SDS011;17936;52.446;10.840;2023-04-03T02:02:04;6.45;;;1.23;;
31308;SDS011;17936;52.446;10.840;2023-04-03T02:04:29;5.07;;;1.23;;
31308;SDS011;17936;52.446;10.840;2023-04-03T02:06:55;4.53;;;0.98;;
31308;SDS011;17936;52.446;10.840;2023-04-03T02:09:20;5.03;;;1.15;;
31308;SDS011;17936;52.446;10.840;2023-04-03T02:11:46;6.90;;;1.40;;
31308;SDS011;17936;52.446;10.840;2023-04-03T02:14:11;4.78;;;1.25;;
31308;SDS011;17936;52.446;10.840;2023-04-03T02:16:37;4.78;;;1.00;;
31308;SDS011;17936;52.446;10.840;2023-04-03T02:19:02;6.05;;;1.13;;
31308;SDS011;17936;52.446;10.840;2023-04-03T02:21:28;4.20;;;1.05;;
31308;SDS011;17936;52.446;10.840;2023-04-03T02:23:54;5.80;;;1.10;;
31308;SDS011;17936;52.446;10.840;2023-04-03T02:26:19;5.82;;;1.25;;
31308;SDS011;17936;52.446;10.840;2023-04-03T02:28:46;7.45;;;1.20;;
31308;SDS011;17936;52.446;10.840;2023-04-03T02:31:11;3.60;;;0.90;;
31308;SDS011;17936;52.446;10.840;2023-04-03T02:33:37;2.05;;;0.90;;
31308;SDS011;17936;52.446;10.840;2023-04-03T02:36:06;10.15;;;1.33;;
31308;SDS011;17936;52.446;10.840;2023-04-03T02:38:33;5.00;;;1.10;;
31308;SDS011;17936;52.446;10.840;2023-04-03T02:41:06;2.65;;;0.93;;
31308;SDS011;17936;52.446;10.840;2023-04-03T02:43:33;6.22;;;1.52;;
31308;SDS011;17936;52.446;10.840;2023-04-03T02:45:59;5.43;;;1.02;;
31308;SDS011;17936;52.446;10.840;2023-04-03T02:48:25;3.97;;;0.95;;
31308;SDS011;17936;52.446;10.840;2023-04-03T02:50:51;8.32;;;1.27;;
31308;SDS011;17936;52.446;10.840;2023-04-03T02:53:17;3.70;;;1.08;;
31308;SDS011;17936;52.446;10.840;2023-04-03T02:55:43;5.43;;;1.30;;
31308;SDS011;17936;52.446;10.840;2023-04-03T02:58:09;3.95;;;1.13;;
31308;SDS011;17936;52.446;10.840;2023-04-03T03:00:35;3.70;;;1.13;;
31308;SDS011;17936;52.446;10.840;2023-04-03T03:03:01;7.85;;;1.25;;
31308;SDS011;17936;52.446;10.840;2023-04-03T03:05:26;4.22;;;0.82;;
31308;SDS011;17936;52.446;10.840;2023-04-03T03:07:53;6.75;;;1.15;;
31308;SDS011;17936;52.446;10.840;2023-04-03T03:10:18;5.13;;;1.20;;
31308;SDS011;17936;52.446;10.840;2023-04-03T03:12:44;7.00;;;1.38;;
31308;SDS011;17936;52.446;10.840;2023-04-03T03:15:10;1.98;;;0.80;;
31308;SDS011;17936;52.446;10.840;2023-04-03T03:17:36;7.43;;;1.35;;
31308;SDS011;17936;52.446;10.840;2023-04-03T03:20:02;3.35;;;1.00;;
31308;SDS011;17936;52.446;10.840;2023-04-03T03:22:28;3.38;;;1.20;;
31308;SDS011;17936;52.446;10.840;2023-04-03T03:24:54;5.68;;;1.17;;
31308;SDS011;17936;52.446;10.840;2023-04-03T03:27:20;6.63;;;1.27;;
31308;SDS011;17936;52.446;10.840;2023-04-03T03:29:45;4.75;;;1.30;;
31308;SDS011;17936;52.446;10.840;2023-04-03T03:32:11;6.97;;;1.50;;
31308;SDS011;17936;52.446;10.840;2023-04-03T03:34:36;6.28;;;1.42;;
31308;SDS011;17936;52.446;10.840;2023-04-03T03:37:02;3.83;;;1.20;;
31308;SDS011;17936;52.446;10.840;2023-04-03T03:39:28;7.93;;;1.45;;
31308;SDS011;17936;52.446;10.840;2023-04-03T03:41:53;4.13;;;1.13;;
31308;SDS011;17936;52.446;10.840;2023-04-03T03:44:19;5.63;;;1.27;;
31308;SDS011;17936;52.446;10.840;2023-04-03T03:46:45;6.72;;;1.23;;
31308;SDS011;17936;52.446;10.840;2023-04-03T03:49:10;4.82;;;1.10;;
31308;SDS011;17936;52.446;10.840;2023-04-03T03:51:36;9.95;;;1.27;;
31308;SDS011;17936;52.446;10.840;2023-04-03T03:54:02;6.47;;;1.48;;
31308;SDS011;17936;52.446;10.840;2023-04-03T03:56:28;3.95;;;1.20;;
31308;SDS011;17936;52.446;10.840;2023-04-03T03:58:54;4.35;;;1.15;;
31308;SDS011;17936;52.446;10.840;2023-04-03T04:01:21;6.50;;;1.40;;
31308;SDS011;17936;52.446;10.840;2023-04-03T04:03:47;7.18;;;1.45;;
31308;SDS011;17936;52.446;10.840;2023-04-03T04:06:13;2.92;;;1.15;;
31308;SDS011;17936;52.446;10.840;2023-04-03T04:08:38;6.03;;;1.30;;
31308;SDS011;17936;52.446;10.840;2023-04-03T04:11:04;4.88;;;1.38;;
31308;SDS011;17936;52.446;10.840;2023-04-03T04:13:30;3.83;;;1.40;;
31308;SDS011;17936;52.446;10.840;2023-04-03T04:15:55;5.10;;;1.33;;
31308;SDS011;17936;52.446;10.840;2023-04-03T04:18:21;8.38;;;1.48;;
31308;SDS011;17936;52.446;10.840;2023-04-03T04:20:47;6.05;;;1.30;;
31308;SDS011;17936;52.446;10.840;2023-04-03T04:23:13;9.90;;;2.08;;
31308;SDS011;17936;52.446;10.840;2023-04-03T04:25:38;10.15;;;1.42;;
31308;SDS011;17936;52.446;10.840;2023-04-03T04:28:04;8.45;;;1.50;;
31308;SDS011;17936;52.446;10.840;2023-04-03T04:30:30;3.83;;;1.30;;
31308;SDS011;17936;52.446;10.840;2023-04-03T04:32:55;4.82;;;1.20;;
31308;SDS011;17936;52.446;10.840;2023-04-03T04:35:21;8.43;;;1.58;;
31308;SDS011;17936;52.446;10.840;2023-04-03T04:37:46;3.90;;;1.05;;
31308;SDS011;17936;52.446;10.840;2023-04-03T04:40:12;7.55;;;1.40;;
31308;SDS011;17936;52.446;10.840;2023-04-03T04:42:37;5.32;;;1.30;;
31308;SDS011;17936;52.446;10.840;2023-04-03T04:45:03;4.97;;;1.42;;
31308;SDS011;17936;52.446;10.840;2023-04-03T04:47:29;6.53;;;1.45;;
31308;SDS011;17936;52.446;10.840;2023-04-03T04:49:55;7.72;;;1.85;;
31308;SDS011;17936;52.446;10.840;2023-04-03T04:52:20;6.03;;;1.52;;
31308;SDS011;17936;52.446;10.840;2023-04-03T04:54:46;6.15;;;1.45;;
31308;SDS011;17936;52.446;10.840;2023-04-03T04:57:11;5.72;;;1.70;;
31308;SDS011;17936;52.446;10.840;2023-04-03T04:59:37;8.57;;;1.60;;
31308;SDS011;17936;52.446;10.840;2023-04-03T05:02:02;4.88;;;1.38;;
31308;SDS011;17936;52.446;10.840;2023-04-03T05:04:28;5.50;;;1.75;;
31308;SDS011;17936;52.446;10.840;2023-04-03T05:06:53;5.32;;;1.90;;
31308;SDS011;17936;52.446;10.840;2023-04-03T05:09:19;11.48;;;2.20;;
31308;SDS011;17936;52.446;10.840;2023-04-03T05:11:45;5.22;;;1.17;;
31308;SDS011;17936;52.446;10.840;2023-04-03T05:14:11;9.43;;;1.85;;
31308;SDS011;17936;52.446;10.840;2023-04-03T05:16:36;7.15;;;1.85;;
31308;SDS011;17936;52.446;10.840;2023-04-03T05:19:02;6.15;;;1.60;;
31308;SDS011;17936;52.446;10.840;2023-04-03T05:21:28;8.05;;;1.85;;
31308;SDS011;17936;52.446;10.840;2023-04-03T05:24:00;6.18;;;1.67;;
31308;SDS011;17936;52.446;10.840;2023-04-03T05:26:27;10.82;;;2.13;;
31308;SDS011;17936;52.446;10.840;2023-04-03T05:28:54;5.97;;;1.85;;
31308;SDS011;17936;52.446;10.840;2023-04-03T05:31:20;7.20;;;1.90;;
31308;SDS011;17936;52.446;10.840;2023-04-03T05:33:45;6.07;;;1.92;;
31308;SDS011;17936;52.446;10.840;2023-04-03T05:36:11;5.90;;;1.55;;
31308;SDS011;17936;52.446;10.840;2023-04-03T05:38:38;6.32;;;1.48;;
31308;SDS011;17936;52.446;10.840;2023-04-03T05:41:03;8.32;;;1.88;;
31308;SDS011;17936;52.446;10.840;2023-04-03T05:43:29;3.08;;;1.27;;
31308;SDS011;17936;52.446;10.840;2023-04-03T05:45:55;10.43;;;2.05;;
31308;SDS011;17936;52.446;10.840;2023-04-03T05:48:20;14.20;;;1.92;;
31308;SDS011;17936;52.446;10.840;2023-04-03T05:50:46;4.90;;;1.92;;
31308;SDS011;17936;52.446;10.840;2023-04-03T05:53:22;8.63;;;1.70;;
31308;SDS011;17936;52.446;10.840;2023-04-03T05:55:52;8.38;;;1.67;;
31308;SDS011;17936;52.446;10.840;2023-04-03T05:58:18;6.50;;;1.88;;
31308;SDS011;17936;52.446;10.840;2023-04-03T06:00:44;9.68;;;2.08;;
31308;SDS011;17936;52.446;10.840;2023-04-03T06:03:10;4.95;;;1.95;;
31308;SDS011;17936;52.446;10.840;2023-04-03T06:05:35;8.35;;;2.00;;
31308;SDS011;17936;52.446;10.840;2023-04-03T06:08:01;10.10;;;2.17;;
31308;SDS011;17936;52.446;10.840;2023-04-03T06:10:27;9.85;;;3.10;;
31308;SDS011;17936;52.446;10.840;2023-04-03T06:12:53;4.57;;;1.48;;
31308;SDS011;17936;52.446;10.840;2023-04-03T06:15:19;8.35;;;1.42;;
31308;SDS011;17936;52.446;10.840;2023-04-03T06:17:46;5.55;;;1.50;;
31308;SDS011;17936;52.446;10.840;2023-04-03T06:20:11;12.23;;;1.58;;
31308;SDS011;17936;52.446;10.840;2023-04-03T06:22:37;4.32;;;1.38;;
31308;SDS011;17936;52.446;10.840;2023-04-03T06:25:03;6.95;;;1.27;;
31308;SDS011;17936;52.446;10.840;2023-04-03T06:27:29;5.13;;;1.50;;
31308;SDS011;17936;52.446;10.840;2023-04-03T06:29:55;9.60;;;1.23;;
31308;SDS011;17936;52.446;10.840;2023-04-03T06:32:21;6.72;;;1.50;;
31308;SDS011;17936;52.446;10.840;2023-04-03T06:34:46;3.30;;;0.98;;
31308;SDS011;17936;52.446;10.840;2023-04-03T06:37:15;5.68;;;1.48;;
31308;SDS011;17936;52.446;10.840;2023-04-03T06:39:43;4.47;;;1.42;;
31308;SDS011;17936;52.446;10.840;2023-04-03T06:42:10;9.48;;;1.88;;
31308;SDS011;17936;52.446;10.840;2023-04-03T06:44:35;7.32;;;1.40;;
31308;SDS011;17936;52.446;10.840;2023-04-03T06:47:01;3.30;;;1.00;;
31308;SDS011;17936;52.446;10.840;2023-04-03T06:49:27;6.22;;;1.42;;
31308;SDS011;17936;52.446;10.840;2023-04-03T06:51:53;4.35;;;1.15;;
31308;SDS011;17936;52.446;10.840;2023-04-03T06:54:19;7.53;;;1.95;;
31308;SDS011;17936;52.446;10.840;2023-04-03T06:56:45;8.50;;;1.70;;
31308;SDS011;17936;52.446;10.840;2023-04-03T06:59:11;2.35;;;1.10;;
31308;SDS011;17936;52.446;10.840;2023-04-03T07:01:40;6.18;;;1.48;;
31308;SDS011;17936;52.446;10.840;2023-04-03T07:04:06;7.55;;;1.60;;
31308;SDS011;17936;52.446;10.840;2023-04-03T07:06:33;8.02;;;1.48;;
31308;SDS011;17936;52.446;10.840;2023-04-03T07:08:59;3.97;;;1.33;;
31308;SDS011;17936;52.446;10.840;2023-04-03T07:11:25;7.68;;;1.38;;
31308;SDS011;17936;52.446;10.840;2023-04-03T07:13:51;6.50;;;1.60;;
31308;SDS011;17936;52.446;10.840;2023-04-03T07:16:18;3.08;;;0.95;;
31308;SDS011;17936;52.446;10.840;2023-04-03T07:18:44;3.95;;;1.13;;
31308;SDS011;17936;52.446;10.840;2023-04-03T07:21:10;5.47;;;1.30;;
31308;SDS011;17936;52.446;10.840;2023-04-03T07:23:36;4.28;;;1.00;;
31308;SDS011;17936;52.446;10.840;2023-04-03T07:26:02;2.72;;;0.93;;
31308;SDS011;17936;52.446;10.840;2023-04-03T07:28:28;2.00;;;0.75;;
31308;SDS011;17936;52.446;10.840;2023-04-03T07:30:59;6.55;;;1.30;;
31308;SDS011;17936;52.446;10.840;2023-04-03T07:33:31;4.10;;;1.15;;
31308;SDS011;17936;52.446;10.840;2023-04-03T07:35:57;3.38;;;1.13;;
31308;SDS011;17936;52.446;10.840;2023-04-03T07:38:23;5.45;;;1.10;;
31308;SDS011;17936;52.446;10.840;2023-04-03T07:40:50;4.55;;;0.95;;
31308;SDS011;17936;52.446;10.840;2023-04-03T07:43:17;4.18;;;1.10;;
31308;SDS011;17936;52.446;10.840;2023-04-03T07:45:45;4.47;;;1.30;;
31308;SDS011;17936;52.446;10.840;2023-04-03T07:48:11;6.15;;;1.48;;
31308;SDS011;17936;52.446;10.840;2023-04-03T07:50:39;4.05;;;1.50;;
31308;SDS011;17936;52.446;10.840;2023-04-03T07:53:05;9.95;;;1.45;;
31308;SDS011;17936;52.446;10.840;2023-04-03T07:55:31;4.70;;;1.15;;
31308;SDS011;17936;52.446;10.840;2023-04-03T07:57:57;3.38;;;0.95;;
31308;SDS011;17936;52.446;10.840;2023-04-03T08:00:23;4.18;;;1.10;;
31308;SDS011;17936;52.446;10.840;2023-04-03T08:02:49;3.75;;;1.00;;
31308;SDS011;17936;52.446;10.840;2023-04-03T08:05:19;5.57;;;1.02;;
31308;SDS011;17936;52.446;10.840;2023-04-03T08:07:45;4.13;;;0.90;;
31308;SDS011;17936;52.446;10.840;2023-04-03T08:10:11;4.20;;;0.90;;
31308;SDS011;17936;52.446;10.840;2023-04-03T08:12:37;3.25;;;1.20;;
31308;SDS011;17936;52.446;10.840;2023-04-03T08:15:03;1.63;;;0.77;;
31308;SDS011;17936;52.446;10.840;2023-04-03T08:17:29;8.60;;;1.02;;
31308;SDS011;17936;52.446;10.840;2023-04-03T08:19:55;2.38;;;1.00;;
31308;SDS011;17936;52.446;10.840;2023-04-03T08:22:20;4.03;;;0.90;;
31308;SDS011;17936;52.446;10.840;2023-04-03T08:24:46;4.63;;;1.08;;
31308;SDS011;17936;52.446;10.840;2023-04-03T08:27:11;2.25;;;0.90;;
31308;SDS011;17936;52.446;10.840;2023-04-03T08:29:37;3.30;;;0.88;;
31308;SDS011;17936;52.446;10.840;2023-04-03T08:32:03;6.22;;;1.10;;
31308;SDS011;17936;52.446;10.840;2023-04-03T08:34:29;4.13;;;0.95;;
31308;SDS011;17936;52.446;10.840;2023-04-03T08:36:55;4.07;;;1.02;;
31308;SDS011;17936;52.446;10.840;2023-04-03T08:39:21;11.48;;;1.25;;
31308;SDS011;17936;52.446;10.840;2023-04-03T08:41:47;6.05;;;1.17;;
31308;SDS011;17936;52.446;10.840;2023-04-03T08:46:56;5.13;;;1.17;;
31308;SDS011;17936;52.446;10.840;2023-04-03T08:49:31;3.85;;;1.23;;
31308;SDS011;17936;52.446;10.840;2023-04-03T08:52:01;3.10;;;0.80;;
31308;SDS011;17936;52.446;10.840;2023-04-03T08:57:28;5.43;;;1.10;;
31308;SDS011;17936;52.446;10.840;2023-04-03T09:00:00;4.72;;;0.90;;
31308;SDS011;17936;52.446;10.840;2023-04-03T09:02:31;1.95;;;0.45;;
31308;SDS011;17936;52.446;10.840;2023-04-03T09:05:08;3.03;;;0.77;;
31308;SDS011;17936;52.446;10.840;2023-04-03T09:07:43;7.90;;;1.08;;
31308;SDS011;17936;52.446;10.840;2023-04-03T09:10:15;2.65;;;0.85;;
31308;SDS011;17936;52.446;10.840;2023-04-03T09:12:49;4.35;;;0.80;;
31308;SDS011;17936;52.446;10.840;2023-04-03T09:15:24;2.00;;;0.90;;
31308;SDS011;17936;52.446;10.840;2023-04-03T09:20:44;2.67;;;0.93;;
31308;SDS011;17936;52.446;10.840;2023-04-03T09:23:31;4.75;;;0.80;;
31308;SDS011;17936;52.446;10.840;2023-04-03T09:26:07;5.35;;;1.40;;
31308;SDS011;17936;52.446;10.840;2023-04-03T09:28:39;4.32;;;0.80;;
31308;SDS011;17936;52.446;10.840;2023-04-03T09:31:22;4.10;;;0.70;;
31308;SDS011;17936;52.446;10.840;2023-04-03T09:33:54;3.00;;;1.02;;
31308;SDS011;17936;52.446;10.840;2023-04-03T09:36:39;2.50;;;0.75;;
31308;SDS011;17936;52.446;10.840;2023-04-03T09:39:10;3.75;;;0.90;;
31308;SDS011;17936;52.446;10.840;2023-04-03T09:44:22;2.78;;;0.90;;
31308;SDS011;17936;52.446;10.840;2023-04-03T09:46:51;3.75;;;0.65;;
31308;SDS011;17936;52.446;10.840;2023-04-03T09:49:17;2.83;;;0.70;;
31308;SDS011;17936;52.446;10.840;2023-04-03T09:51:44;8.50;;;0.60;;
31308;SDS011;17936;52.446;10.840;2023-04-03T09:54:43;2.17;;;0.65;;
31308;SDS011;17936;52.446;10.840;2023-04-03T09:57:09;1.63;;;0.70;;
31308;SDS011;17936;52.446;10.840;2023-04-03T09:59:40;4.00;;;0.90;;
31308;SDS011;17936;52.446;10.840;2023-04-03T10:02:20;7.00;;;1.10;;
31308;SDS011;17936;52.446;10.840;2023-04-03T10:04:53;5.35;;;0.93;;
31308;SDS011;17936;52.446;10.840;2023-04-03T10:07:34;5.20;;;0.90;;
31308;SDS011;17936;52.446;10.840;2023-04-03T10:12:45;7.32;;;1.15;;
31308;SDS011;17936;52.446;10.840;2023-04-03T10:15:14;4.75;;;1.10;;
31308;SDS011;17936;52.446;10.840;2023-04-03T10:17:53;2.92;;;0.52;;
31308;SDS011;17936;52.446;10.840;2023-04-03T10:20:39;2.40;;;0.70;;
31308;SDS011;17936;52.446;10.840;2023-04-03T10:23:18;4.68;;;0.90;;
31308;SDS011;17936;52.446;10.840;2023-04-03T10:26:10;3.35;;;1.15;;
31308;SDS011;17936;52.446;10.840;2023-04-03T10:29:09;1.67;;;0.98;;
31308;SDS011;17936;52.446;10.840;2023-04-03T10:34:44;3.75;;;0.90;;
31308;SDS011;17936;52.446;10.840;2023-04-03T10:37:14;4.15;;;1.00;;
31308;SDS011;17936;52.446;10.840;2023-04-03T10:45:19;6.47;;;1.40;;
31308;SDS011;17936;52.446;10.840;2023-04-03T10:48:14;1.50;;;0.63;;
31308;SDS011;17936;52.446;10.840;2023-04-03T10:50:55;3.80;;;0.90;;
31308;SDS011;17936;52.446;10.840;2023-04-03T10:56:07;3.67;;;0.85;;
31308;SDS011;17936;52.446;10.840;2023-04-03T10:58:50;6.38;;;0.93;;
31308;SDS011;17936;52.446;10.840;2023-04-03T11:01:23;3.03;;;1.30;;
31308;SDS011;17936;52.446;10.840;2023-04-03T11:03:54;4.00;;;1.17;;
31308;SDS011;17936;52.446;10.840;2023-04-03T11:06:24;3.65;;;0.98;;
31308;SDS011;17936;52.446;10.840;2023-04-03T11:08:57;5.80;;;0.88;;
31308;SDS011;17936;52.446;10.840;2023-04-03T11:11:32;3.40;;;1.10;;
31308;SDS011;17936;52.446;10.840;2023-04-03T11:14:20;3.10;;;0.98;;
31308;SDS011;17936;52.446;10.840;2023-04-03T11:16:59;1.90;;;0.70;;
31308;SDS011;17936;52.446;10.840;2023-04-03T11:19:41;3.42;;;1.05;;
31308;SDS011;17936;52.446;10.840;2023-04-03T11:22:23;3.42;;;1.05;;
31308;SDS011;17936;52.446;10.840;2023-04-03T11:24:57;2.67;;;1.13;;
31308;SDS011;17936;52.446;10.840;2023-04-03T11:30:20;2.63;;;0.88;;
31308;SDS011;17936;52.446;10.840;2023-04-03T11:35:51;4.03;;;1.00;;
31308;SDS011;17936;52.446;10.840;2023-04-03T11:38:24;1.92;;;0.85;;
31308;SDS011;17936;52.446;10.840;2023-04-03T11:40:54;2.22;;;1.00;;
31308;SDS011;17936;52.446;10.840;2023-04-03T11:43:22;4.15;;;1.10;;
31308;SDS011;17936;52.446;10.840;2023-04-03T11:45:52;7.75;;;1.13;;
31308;SDS011;17936;52.446;10.840;2023-04-03T11:51:01;2.88;;;0.85;;
31308;SDS011;17936;52.446;10.840;2023-04-03T11:53:47;5.28;;;1.10;;
31308;SDS011;17936;52.446;10.840;2023-04-03T12:01:54;3.28;;;0.75;;
31308;SDS011;17936;52.446;10.840;2023-04-03T12:04:22;3.35;;;1.00;;
31308;SDS011;17936;52.446;10.840;2023-04-03T12:14:53;5.43;;;1.10;;
31308;SDS011;17936;52.446;10.840;2023-04-03T12:17:20;8.15;;;1.63;;
31308;SDS011;17936;52.446;10.840;2023-04-03T12:19:51;2.75;;;0.88;;
31308;SDS011;17936;52.446;10.840;2023-04-03T12:22:17;7.05;;;1.30;;
31308;SDS011;17936;52.446;10.840;2023-04-03T12:24:46;4.25;;;0.80;;
31308;SDS011;17936;52.446;10.840;2023-04-03T12:35:20;2.88;;;0.80;;
31308;SDS011;17936;52.446;10.840;2023-04-03T12:40:49;5.72;;;0.73;;
31308;SDS011;17936;52.446;10.840;2023-04-03T12:46:23;3.70;;;0.70;;
31308;SDS011;17936;52.446;10.840;2023-04-03T12:48:53;4.40;;;1.23;;
31308;SDS011;17936;52.446;10.840;2023-04-03T12:51:37;4.90;;;0.90;;
31308;SDS011;17936;52.446;10.840;2023-04-03T12:54:27;3.35;;;1.00;;
31308;SDS011;17936;52.446;10.840;2023-04-03T12:59:57;3.45;;;0.70;;
31308;SDS011;17936;52.446;10.840;2023-04-03T13:02:30;5.38;;;1.05;;
31308;SDS011;17936;52.446;10.840;2023-04-03T13:04:59;2.95;;;0.80;;
31308;SDS011;17936;52.446;10.840;2023-04-03T13:07:37;4.53;;;0.90;;
31308;SDS011;17936;52.446;10.840;2023-04-03T13:12:55;2.63;;;0.93;;
31308;SDS011;17936;52.446;10.840;2023-04-03T13:15:23;1.58;;;0.85;;
31308;SDS011;17936;52.446;10.840;2023-04-03T13:17:51;4.40;;;0.77;;
31308;SDS011;17936;52.446;10.840;2023-04-03T13:20:31;4.25;;;1.08;;
31308;SDS011;17936;52.446;10.840;2023-04-03T13:25:32;2.30;;;1.08;;
31308;SDS011;17936;52.446;10.840;2023-04-03T13:28:00;2.88;;;0.93;;
31308;SDS011;17936;52.446;10.840;2023-04-03T13:32:58;3.22;;;1.02;;
31308;SDS011;17936;52.446;10.840;2023-04-03T13:37:56;4.38;;;0.88;;
31308;SDS011;17936;52.446;10.840;2023-04-03T13:40:24;3.90;;;0.82;;
31308;SDS011;17936;52.446;10.840;2023-04-03T13:43:14;1.70;;;0.88;;
31308;SDS011;17936;52.446;10.840;2023-04-03T13:45:57;3.22;;;1.17;;
31308;SDS011;17936;52.446;10.840;2023-04-03T13:48:43;2.53;;;1.00;;
31308;SDS011;17936;52.446;10.840;2023-04-03T13:53:50;3.28;;;1.00;;
31308;SDS011;17936;52.446;10.840;2023-04-03T13:56:33;3.35;;;1.00;;
31308;SDS011;17936;52.446;10.840;2023-04-03T14:02:21;3.13;;;0.98;;
31308;SDS011;17936;52.446;10.840;2023-04-03T14:04:28;2.75;;;0.65;;
31308;SDS011;17936;52.446;10.840;2023-04-03T14:06:56;2.33;;;0.85;;
31308;SDS011;17936;52.446;10.840;2023-04-03T14:09:22;2.45;;;0.82;;
31308;SDS011;17936;52.446;10.840;2023-04-03T14:11:50;3.22;;;0.65;;
31308;SDS011;17936;52.446;10.840;2023-04-03T14:14:29;1.75;;;0.73;;
31308;SDS011;17936;52.446;10.840;2023-04-03T14:16:57;2.15;;;0.80;;
31308;SDS011;17936;52.446;10.840;2023-04-03T14:19:32;1.88;;;0.70;;
31308;SDS011;17936;52.446;10.840;2023-04-03T14:21:59;2.20;;;0.88;;
31308;SDS011;17936;52.446;10.840;2023-04-03T14:24:26;2.92;;;0.75;;
31308;SDS011;17936;52.446;10.840;2023-04-03T14:26:53;2.72;;;0.80;;
31308;SDS011;17936;52.446;10.840;2023-04-03T14:29:20;2.55;;;0.70;;
31308;SDS011;17936;52.446;10.840;2023-04-03T14:31:47;5.78;;;0.90;;
31308;SDS011;17936;52.446;10.840;2023-04-03T14:34:14;3.33;;;1.00;;
31308;SDS011;17936;52.446;10.840;2023-04-03T14:36:40;3.47;;;0.90;;
31308;SDS011;17936;52.446;10.840;2023-04-03T14:39:10;1.88;;;0.90;;
31308;SDS011;17936;52.446;10.840;2023-04-03T14:41:41;3.85;;;1.23;;
31308;SDS011;17936;52.446;10.840;2023-04-03T14:44:08;2.00;;;0.98;;
31308;SDS011;17936;52.446;10.840;2023-04-03T14:46:37;8.90;;;1.10;;
31308;SDS011;17936;52.446;10.840;2023-04-03T14:49:12;3.70;;;1.20;;
31308;SDS011;17936;52.446;10.840;2023-04-03T14:51:45;3.40;;;1.10;;
31308;SDS011;17936;52.446;10.840;2023-04-03T14:54:15;3.67;;;0.98;;
31308;SDS011;17936;52.446;10.840;2023-04-03T14:56:43;4.20;;;1.10;;
31308;SDS011;17936;52.446;10.840;2023-04-03T14:59:11;2.55;;;0.80;;
31308;SDS011;17936;52.446;10.840;2023-04-03T15:01:38;2.25;;;0.60;;
31308;SDS011;17936;52.446;10.840;2023-04-03T15:04:25;4.75;;;1.15;;
31308;SDS011;17936;52.446;10.840;2023-04-03T15:06:50;3.03;;;0.98;;
31308;SDS011;17936;52.446;10.840;2023-04-03T15:09:20;3.50;;;1.00;;
31308;SDS011;17936;52.446;10.840;2023-04-03T15:11:47;3.72;;;1.02;;
31308;SDS011;17936;52.446;10.840;2023-04-03T15:14:13;2.83;;;1.30;;
31308;SDS011;17936;52.446;10.840;2023-04-03T15:16:39;2.55;;;0.70;;
31308;SDS011;17936;52.446;10.840;2023-04-03T15:19:04;4.00;;;0.80;;
31308;SDS011;17936;52.446;10.840;2023-04-03T15:21:30;3.80;;;0.93;;
31308;SDS011;17936;52.446;10.840;2023-04-03T15:23:55;2.60;;;0.90;;
31308;SDS011;17936;52.446;10.840;2023-04-03T15:26:21;1.80;;;0.90;;
31308;SDS011;17936;52.446;10.840;2023-04-03T15:28:47;3.25;;;0.95;;
31308;SDS011;17936;52.446;10.840;2023-04-03T15:31:12;4.68;;;1.10;;
31308;SDS011;17936;52.446;10.840;2023-04-03T15:33:38;4.00;;;0.95;;
31308;SDS011;17936;52.446;10.840;2023-04-03T15:36:04;5.70;;;1.25;;
31308;SDS011;17936;52.446;10.840;2023-04-03T15:38:29;2.28;;;0.95;;
31308;SDS011;17936;52.446;10.840;2023-04-03T15:40:55;3.75;;;1.10;;
31308;SDS011;17936;52.446;10.840;2023-04-03T15:43:21;5.43;;;1.00;;
31308;SDS011;17936;52.446;10.840;2023-04-03T15:45:47;7.90;;;1.20;;
31308;SDS011;17936;52.446;10.840;2023-04-03T15:48:13;3.90;;;0.63;;
31308;SDS011;17936;52.446;10.840;2023-04-03T15:50:38;4.78;;;1.27;;
31308;SDS011;17936;52.446;10.840;2023-04-03T15:53:05;3.00;;;0.85;;
31308;SDS011;17936;52.446;10.840;2023-04-03T15:55:32;3.88;;;1.35;;
31308;SDS011;17936;52.446;10.840;2023-04-03T15:57:59;1.63;;;1.00;;
31308;SDS011;17936;52.446;10.840;2023-04-03T16:00:26;2.78;;;0.80;;
31308;SDS011;17936;52.446;10.840;2023-04-03T16:02:53;5.47;;;1.20;;
31308;SDS011;17936;52.446;10.840;2023-04-03T16:05:22;5.22;;;1.08;;